BLACK BUTTE (BLB)

Elevation: 426' · STONY CR basin · Operator: US Army Corps of Engineers

Provisional data, subject to change.
Query executed Tuesday at 15:08:22   clock

Select a sensor type for a plot of data.
Note: Reservoir Flows are daily averages.

Earlier

Date RES ELE    STORAGE    RES CHG    TOC STO    ABV TOC    OUTFLOW    INFLOW    PPT INC    TEMP MN    TEMP MX    EVP PAN   
 FEET   AF   AF   AF   AF   CFS   CFS   INCHES   DEG F   DEG F   INCHES  
08/02/2015 452.51 60412 -534 136200 -75788 261 14 0.00 20 34 0.23
08/03/2015 452.30 59826 -586 136200 -76374 269 -0 0.00 17 33 0.28
08/04/2015 452.09 59243 -583 136200 -76957 277 -2 0.00 15 27 0.16
08/05/2015 451.88 58665 -578 136200 -77535 278 8 0.00 16 32 0.23
08/06/2015 451.70 58173 -492 136200 -78027 216 -6 0.00 19 36 0.28
08/07/2015 451.58 57846 -327 136200 -78354 146 8 0.00 21 35 0.29
08/08/2015 451.44 57467 -379 136200 -78733 169 1 0.00 17 32 0.25
08/09/2015 451.29 57062 -405 136200 -79138 167 -12 0.00 17 36 0.27
08/10/2015 451.13 56633 -429 136200 -79567 212 17 0.00 19 32 0.24
08/11/2015 450.93 56100 -533 136200 -80100 242 -5 0.00 16 32 0.24
08/12/2015 450.74 55596 -504 136200 -80604 240 10 0.00 16 32 0.26
08/13/2015 450.53 55044 -552 136200 -81156 236 -16 0.00 15 34 0.30
08/14/2015 450.32 54495 -549 136200 -81705 270 15 0.00 14 33 0.24
08/15/2015 450.13 54001 -494 136200 -82199 236 12 0.00 21 40 0.28
08/16/2015 449.94 53511 -490 136200 -82689 228 4 0.00 19 39 0.26
08/17/2015 449.75 53023 -488 136200 -83177 226 3 0.00 22 40 0.26
08/18/2015 449.57 52564 -459 136200 -83636 218 13 0.00 19 39 0.29
08/19/2015 449.42 52184 -380 136200 -84016 183 10 0.00 17 35 0.22
08/20/2015 449.25 51755 -429 136200 -84445 194 -2 0.00 16 33 0.23
08/21/2015 449.11 51404 -351 136200 -84796 155 -1 0.00 16 34 0.25
08/22/2015 448.94 50980 -424 136200 -85220 185 -6 0.00 17 35 0.27
08/23/2015 448.73 50459 -521 136200 -85741 224 -18 0.00 17 33 0.25
08/24/2015 448.51 49916 -543 136200 -86284 251 -1 0.00 16 34 0.26
08/25/2015 448.29 49377 -539 136200 -86823 236 -13 0.00 17 35 0.27
08/26/2015 448.06 48818 -- 136200 -87382 249 -11 0.00 16 35 0.26
08/27/2015 447.85 48310 -508 136200 -87890 226 -8 0.00 19 38 0.27
08/28/2015 447.64 47806 -504 136200 -88394 215 -17 0.00 22 36 0.27
08/29/2015 447.48 47425 -381 136200 -88775 188 23 0.00 20 31 0.33
08/30/2015 447.35 47116 -309 136200 -89084 132 -7 0.00 14 31 0.21
08/31/2015 447.19 46737 -379 136200 -89463 110 -59 0.00 19 35 0.25
09/01/2015 -- -- -- -- -- -- -- -- -- -- --

Later | Latest

Warning! This data is preliminary and subject to revision.

Show BLB Map | Plot BLB Data | 1 Month BLB Data | Real-Time BLB Data | BLB Info